Beverley, Western Australia

5:16 AM AWST on October 26, 2014 (GMT +0800)
York Western Australia | Change Station
CLOSE
Current Station
Personal Weather Station
Location: York, Western Australia
Elevation: 620 ft
Nearby Weather Stations

Elev 620 ft 31.86 °S, 116.76 °E | Updated 5 seconds ago

Mostly Cloudy
Mostly Cloudy
53.3 °F
Feels Like 53.3 °F
N
0.0
Wind Variable Wind from West
Gusts 0.0 mph

Today
High -- | Low -- °F
--% Chance of Precip.
Yesterday
High -- | Low -- °F
Precip. -- in
5:20 AM 6:32 PM
Waxing Crescent, 4% visible
Pressure 30.09 in
Visibility 6.2 miles
Clouds Mostly Cloudy 4000 ft
Dew Point 51 °F
Humidity 92%
Rainfall 0.00 in
Snow Depth Not available.
UV 0 out of 12
Pollen Not available.
Air Quality Not available.
Flu Activity Not available.
METAR YPPH 252100Z 22007KT 9999 BKN040 17/10 Q1019 NOSIG

More Conditions Fewer Conditions

Pressure 30.09 in
Visibility 6.2 miles
Clouds Mostly Cloudy 4000 ft
Dew Point 51 °F
Humidity 92%
Rainfall 0.00 in
Snow Depth Not available.
UV 0 out of 12
Pollen Not available.
Air Quality Not available.
Flu Activity Not available.
METAR YPPH 252100Z 22007KT 9999 BKN040 17/10 Q1019 NOSIG

More Conditions Fewer Conditions

10-Day Weather Forecast

Almanac

Astronomy

Oct. 26, 2014 Rise Set
Actual Time 5:20 AM AWST 6:32 PM AWST
Civil Twilight 4:55 AM AWST 6:57 PM AWST
Nautical Twilight 4:25 AM AWST 7:28 PM AWST
Astronomical Twilight 3:53 AM AWST 7:59 PM AWST
Moon 6:54 AM AWST (10/26) 8:50 PM AWST (10/26)
Length of Visible Light 14h 02m
Length of Day
13h 11m
Tomorrow will be 1m 50s longer.
Waxing Crescent, 4% of the Moon is Illuminated
Oct 25
Waxing Crescent
Oct 30
First Quarter
Nov 6
Full
Nov 14
Last Quarter
Nov 22
New

Yesterday's Extremes

Country Highs Country Lows

Community

WunderPhotos

Upload Photos

1,764,997 photos uploaded!

Nearby

Snow Depth

Not available.

Earthquake Activity

City Distance Mag. Time & Date
No recent earthquake activity has been reported nearby.
Minimum magnitude displayed is 2.5.

Coastal Water Temperatures

Place Temperature
No Stations Reporting

Nearby Weather Stations